Pedhoulas Trader — C4JM2 — position and weather

sailwx.info

Track history (hours):
 
Tides and Currents Weather Stations Pressure Air Temp Water Temp Dewpoint Dewpoint Depression Visibility Wind Speed Wind Dir Waves Ship Positions

Pedhoulas Trader

Last reported at 2015-May-30 08:33 UTC. Time now 2015-Jul-06 15:42 UTC.
Position N 34°48' E 139°45'.
Warning: this ship's position is 37 days out of date.

Length 229 m; draft 8.6 m.

Type: Cargo ship. MMSI: 210073000.

Date/timePositionNaut miles runAvg speedWind from/ knotsBaromVisibWave heightAir tempDewpointWater temp
2015-May-30 08:33N 34°48' E 139°45'1111.1
2015-May-30 07:33N 34°59' E 139°40'1111.2
2015-May-30 06:33N 35°09' E 139°45'10 9.9
2015-May-30 05:33N 35°19' E 139°43'9 8.9
2015-May-30 04:33N 35°27' E 139°47'10 9.4
2015-May-30 03:31N 35°31' E 139°58'0 0.1
2015-May-30 02:28N 35°31' E 139°58'0 0.1
2015-May-30 01:31N 35°31' E 139°58'0 0.2
2015-May-30 00:33N 35°31' E 139°58'3 3.2
2015-May-29 23:32N 35°28' E 139°58'0 0.0
2015-May-29 22:32N 35°28' E 139°58'0 0.0
2015-May-29 21:32N 35°28' E 139°58'0 0.0
2015-May-29 20:32N 35°28' E 139°58'0 0.0
2015-May-29 19:32N 35°28' E 139°58'0 0.0
2015-May-29 18:32N 35°28' E 139°58'0 0.0
2015-May-29 17:32N 35°28' E 139°58'0 0.0
2015-May-29 16:32N 35°28' E 139°58'0 0.0
2015-May-29 15:32N 35°28' E 139°58'0 0.0
2015-May-29 14:32N 35°28' E 139°58'0 0.0
2015-May-29 13:32N 35°28' E 139°58'0 0.0
2015-May-29 12:32N 35°28' E 139°58'0 0.0
2015-May-29 11:32N 35°28' E 139°58'0 0.0
2015-May-29 10:32N 35°28' E 139°58'0 0.0
2015-May-29 09:32N 35°28' E 139°58'0 0.0
2015-May-29 08:32N 35°28' E 139°58'0 0.0
2015-May-29 07:32N 35°28' E 139°58'0 0.0
2015-May-29 06:32N 35°28' E 139°58'0 0.0
2015-May-29 05:32N 35°28' E 139°58'0 0.0
2015-May-29 04:32N 35°28' E 139°58'0 0.0
2015-May-29 03:32N 35°28' E 139°58'0 0.0
2015-May-29 02:32N 35°28' E 139°58'0 0.0
2015-May-29 01:32N 35°28' E 139°58'0 0.0
2015-May-29 00:32N 35°28' E 139°58'0 0.0
2015-May-28 23:32N 35°28' E 139°58'0 0.0
2015-May-28 22:32N 35°28' E 139°58'0 0.0
2015-May-28 21:29N 35°28' E 139°58'0 0.0
2015-May-28 20:32N 35°28' E 139°58'0 0.0
2015-May-28 19:32N 35°28' E 139°58'0 0.0
2015-May-28 18:32N 35°28' E 139°58'0 0.0
2015-May-28 17:32N 35°28' E 139°58'0 0.0
2015-May-28 16:32N 35°28' E 139°58'0 0.0
2015-May-28 15:32N 35°28' E 139°58'0 0.0
2015-May-28 14:32N 35°28' E 139°58'0 0.0
2015-May-28 13:29N 35°28' E 139°58'0 0.0
2015-May-28 12:32N 35°28' E 139°58'0 0.0
2015-May-28 11:32N 35°28' E 139°58'0 0.0
2015-May-28 10:32N 35°28' E 139°58'0 0.0
2015-May-28 09:32N 35°28' E 139°58'0 0.0
2015-May-28 08:32N 35°28' E 139°58'0 0.0
2015-May-28 07:32N 35°28' E 139°58'0 0.0
2015-May-28 06:32N 35°28' E 139°58'0 0.0
2015-May-28 05:32N 35°28' E 139°58'0 0.0
2015-May-28 04:32N 35°28' E 139°58'0 0.0
2015-May-28 03:32N 35°28' E 139°58'0 0.0
2015-May-28 02:32N 35°28' E 139°58'0 0.0
2015-May-28 01:26N 35°28' E 139°58'0 0.0
2015-May-28 00:32N 35°28' E 139°58'0 0.0
2015-May-27 23:32N 35°28' E 139°58'0 0.0
2015-May-27 22:32N 35°28' E 139°58'0 0.0
2015-May-27 21:32N 35°28' E 139°58'0 0.0
2015-May-27 20:32N 35°28' E 139°58'0 0.0
2015-May-27 19:32N 35°28' E 139°58'0 0.0
2015-May-27 18:32N 35°28' E 139°58'0 0.0
2015-May-27 17:29N 35°28' E 139°58'0 0.0
2015-May-27 16:32N 35°28' E 139°58'0 0.0
2015-May-27 15:32N 35°28' E 139°58'0 0.0
2015-May-27 14:32N 35°28' E 139°58'0 0.0
2015-May-27 13:32N 35°28' E 139°58'0 0.0
2015-May-27 12:32N 35°28' E 139°58'0 0.0
2015-May-27 11:23N 35°28' E 139°58'0 0.0
2015-May-27 10:32N 35°28' E 139°58'0 0.0
2015-May-27 09:29N 35°28' E 139°58'0 0.0
2015-May-27 08:32N 35°28' E 139°58'0 0.0
2015-May-27 07:32N 35°28' E 139°58'0 0.0
2015-May-27 06:32N 35°28' E 139°58'0 0.0
2015-May-27 05:32N 35°28' E 139°58'0 0.0
2015-May-27 04:32N 35°28' E 139°58'0 0.0
2015-May-27 03:32N 35°28' E 139°58'0 0.0
2015-May-27 02:32N 35°28' E 139°58'0 0.0
2015-May-27 01:29N 35°28' E 139°58'0 0.0
2015-May-27 00:32N 35°28' E 139°58'0 0.0
2015-May-26 23:29N 35°28' E 139°58'0 0.0
2015-May-26 22:32N 35°28' E 139°58'0 0.0
2015-May-26 21:32N 35°28' E 139°58'0 0.0
2015-May-26 20:32N 35°28' E 139°58'0 0.0
2015-May-26 19:32N 35°28' E 139°58'0 0.0
2015-May-26 18:32N 35°28' E 139°58'0 0.0
2015-May-26 17:29N 35°28' E 139°58'0 0.0
2015-May-26 16:32N 35°28' E 139°58'0 0.0
2015-May-26 15:32N 35°28' E 139°58'0 0.0
2015-May-26 14:32N 35°28' E 139°58'0 0.0
2015-May-26 13:29N 35°28' E 139°58'0 0.0
2015-May-26 12:32N 35°28' E 139°58'0 0.0
2015-May-26 11:32N 35°28' E 139°58'0 0.0
2015-May-26 10:32N 35°28' E 139°58'0 0.0
2015-May-26 09:29N 35°28' E 139°58'0 0.0
2015-May-26 08:32N 35°28' E 139°58'0 0.0
2015-May-26 07:32N 35°28' E 139°58'0 0.0
2015-May-26 06:32N 35°28' E 139°58'0 0.0
2015-May-26 05:29N 35°28' E 139°58'0 0.0
2015-May-26 04:29N 35°28' E 139°58'0 0.0
2015-May-26 03:32N 35°28' E 139°58'0 0.0
2015-May-26 02:32N 35°28' E 139°58'0 0.0
2015-May-26 01:32N 35°28' E 139°58'0 0.0
2015-May-26 00:29N 35°28' E 139°58'0 0.0
2015-May-25 23:32N 35°28' E 139°58'0 0.0
2015-May-25 22:32N 35°28' E 139°58'0 0.0
2015-May-25 21:32N 35°28' E 139°58'0 0.0
2015-May-25 20:32N 35°28' E 139°58'0 0.0
2015-May-25 19:29N 35°28' E 139°58'0 0.0
2015-May-25 18:29N 35°28' E 139°58'0 0.0
2015-May-25 17:32N 35°28' E 139°58'0 0.0
2015-May-25 16:32N 35°28' E 139°58'0 0.0
2015-May-25 15:32N 35°28' E 139°58'0 0.0
2015-May-25 14:32N 35°28' E 139°58'0 0.0
2015-May-25 13:32N 35°28' E 139°58'0 0.0
2015-May-25 12:32N 35°28' E 139°58'0 0.0
2015-May-25 11:32N 35°28' E 139°58'0 0.0
2015-May-25 10:32N 35°28' E 139°58'0 0.0
2015-May-25 09:32N 35°28' E 139°58'0 0.0
2015-May-25 08:32N 35°28' E 139°58'0 0.0
2015-May-25 07:29N 35°28' E 139°58'0 0.0
2015-May-25 06:32N 35°28' E 139°58'0 0.0
2015-May-25 05:32N 35°28' E 139°58'0 0.0
2015-May-25 04:32N 35°28' E 139°58'0 0.0
2015-May-25 03:29N 35°28' E 139°58'0 0.0
2015-May-25 02:29N 35°28' E 139°58'0 0.1
2015-May-25 01:33N 35°28' E 139°58'4 4.5
2015-May-25 00:33N 35°29' E 139°53'1111.4
2015-May-24 23:33N 35°20' E 139°44'1010.3
2015-May-24 22:34N 35°10' E 139°47'1110.7
2015-May-24 21:34N 35°00' E 139°41'1111.1
2015-May-24 20:33N 34°49' E 139°43'1311.5
2015-May-24 19:24N 34°40' E 139°54'1011.6
2015-May-24 18:33N 34°38' E 140°06'1211.0
2015-May-24 17:29N 34°35' E 140°20'  
Track history (hours):
 
Tides and Currents Weather Stations Pressure Air Temp Water Temp Dewpoint Dewpoint Depression Visibility Wind Speed Wind Dir Waves Ship Positions

Pedhoulas Trader

Last reported at 2015-May-30 08:33 UTC. Time now 2015-Jul-06 15:42 UTC.
Position N 34°48' E 139°45'.
Warning: this ship's position is 37 days out of date.

Length 229 m; draft 8.6 m.

Type: Cargo ship. MMSI: 210073000.

Date/timePositionNaut miles runAvg speedWind from/ knotsBaromVisibWave heightAir tempDewpointWater temp
2015-May-30 08:33N 34°48' E 139°45'1111.1
2015-May-30 07:33N 34°59' E 139°40'1111.2
2015-May-30 06:33N 35°09' E 139°45'10 9.9
2015-May-30 05:33N 35°19' E 139°43'9 8.9
2015-May-30 04:33N 35°27' E 139°47'10 9.4
2015-May-30 03:31N 35°31' E 139°58'0 0.1
2015-May-30 02:28N 35°31' E 139°58'0 0.1
2015-May-30 01:31N 35°31' E 139°58'0 0.2
2015-May-30 00:33N 35°31' E 139°58'3 3.2
2015-May-29 23:32N 35°28' E 139°58'0 0.0
2015-May-29 22:32N 35°28' E 139°58'0 0.0
2015-May-29 21:32N 35°28' E 139°58'0 0.0
2015-May-29 20:32N 35°28' E 139°58'0 0.0
2015-May-29 19:32N 35°28' E 139°58'0 0.0
2015-May-29 18:32N 35°28' E 139°58'0 0.0
2015-May-29 17:32N 35°28' E 139°58'0 0.0
2015-May-29 16:32N 35°28' E 139°58'0 0.0
2015-May-29 15:32N 35°28' E 139°58'0 0.0
2015-May-29 14:32N 35°28' E 139°58'0 0.0
2015-May-29 13:32N 35°28' E 139°58'0 0.0
2015-May-29 12:32N 35°28' E 139°58'0 0.0
2015-May-29 11:32N 35°28' E 139°58'0 0.0
2015-May-29 10:32N 35°28' E 139°58'0 0.0
2015-May-29 09:32N 35°28' E 139°58'0 0.0
2015-May-29 08:32N 35°28' E 139°58'0 0.0
2015-May-29 07:32N 35°28' E 139°58'0 0.0
2015-May-29 06:32N 35°28' E 139°58'0 0.0
2015-May-29 05:32N 35°28' E 139°58'0 0.0
2015-May-29 04:32N 35°28' E 139°58'0 0.0
2015-May-29 03:32N 35°28' E 139°58'0 0.0
2015-May-29 02:32N 35°28' E 139°58'0 0.0
2015-May-29 01:32N 35°28' E 139°58'0 0.0
2015-May-29 00:32N 35°28' E 139°58'0 0.0
2015-May-28 23:32N 35°28' E 139°58'0 0.0
2015-May-28 22:32N 35°28' E 139°58'0 0.0
2015-May-28 21:29N 35°28' E 139°58'0 0.0
2015-May-28 20:32N 35°28' E 139°58'0 0.0
2015-May-28 19:32N 35°28' E 139°58'0 0.0
2015-May-28 18:32N 35°28' E 139°58'0 0.0
2015-May-28 17:32N 35°28' E 139°58'0 0.0
2015-May-28 16:32N 35°28' E 139°58'0 0.0
2015-May-28 15:32N 35°28' E 139°58'0 0.0
2015-May-28 14:32N 35°28' E 139°58'0 0.0
2015-May-28 13:29N 35°28' E 139°58'0 0.0
2015-May-28 12:32N 35°28' E 139°58'0 0.0
2015-May-28 11:32N 35°28' E 139°58'0 0.0
2015-May-28 10:32N 35°28' E 139°58'0 0.0
2015-May-28 09:32N 35°28' E 139°58'0 0.0
2015-May-28 08:32N 35°28' E 139°58'0 0.0
2015-May-28 07:32N 35°28' E 139°58'0 0.0
2015-May-28 06:32N 35°28' E 139°58'0 0.0
2015-May-28 05:32N 35°28' E 139°58'0 0.0
2015-May-28 04:32N 35°28' E 139°58'0 0.0
2015-May-28 03:32N 35°28' E 139°58'0 0.0
2015-May-28 02:32N 35°28' E 139°58'0 0.0
2015-May-28 01:26N 35°28' E 139°58'0 0.0
2015-May-28 00:32N 35°28' E 139°58'0 0.0
2015-May-27 23:32N 35°28' E 139°58'0 0.0
2015-May-27 22:32N 35°28' E 139°58'0 0.0
2015-May-27 21:32N 35°28' E 139°58'0 0.0
2015-May-27 20:32N 35°28' E 139°58'0 0.0
2015-May-27 19:32N 35°28' E 139°58'0 0.0
2015-May-27 18:32N 35°28' E 139°58'0 0.0
2015-May-27 17:29N 35°28' E 139°58'0 0.0
2015-May-27 16:32N 35°28' E 139°58'0 0.0
2015-May-27 15:32N 35°28' E 139°58'0 0.0
2015-May-27 14:32N 35°28' E 139°58'0 0.0
2015-May-27 13:32N 35°28' E 139°58'0 0.0
2015-May-27 12:32N 35°28' E 139°58'0 0.0
2015-May-27 11:23N 35°28' E 139°58'0 0.0
2015-May-27 10:32N 35°28' E 139°58'0 0.0
2015-May-27 09:29N 35°28' E 139°58'0 0.0
2015-May-27 08:32N 35°28' E 139°58'0 0.0
2015-May-27 07:32N 35°28' E 139°58'0 0.0
2015-May-27 06:32N 35°28' E 139°58'0 0.0
2015-May-27 05:32N 35°28' E 139°58'0 0.0
2015-May-27 04:32N 35°28' E 139°58'0 0.0
2015-May-27 03:32N 35°28' E 139°58'0 0.0
2015-May-27 02:32N 35°28' E 139°58'0 0.0
2015-May-27 01:29N 35°28' E 139°58'0 0.0
2015-May-27 00:32N 35°28' E 139°58'0 0.0
2015-May-26 23:29N 35°28' E 139°58'0 0.0
2015-May-26 22:32N 35°28' E 139°58'0 0.0
2015-May-26 21:32N 35°28' E 139°58'0 0.0
2015-May-26 20:32N 35°28' E 139°58'0 0.0
2015-May-26 19:32N 35°28' E 139°58'0 0.0
2015-May-26 18:32N 35°28' E 139°58'0 0.0
2015-May-26 17:29N 35°28' E 139°58'0 0.0
2015-May-26 16:32N 35°28' E 139°58'0 0.0
2015-May-26 15:32N 35°28' E 139°58'0 0.0
2015-May-26 14:32N 35°28' E 139°58'0 0.0
2015-May-26 13:29N 35°28' E 139°58'0 0.0
2015-May-26 12:32N 35°28' E 139°58'0 0.0
2015-May-26 11:32N 35°28' E 139°58'0 0.0
2015-May-26 10:32N 35°28' E 139°58'0 0.0
2015-May-26 09:29N 35°28' E 139°58'0 0.0
2015-May-26 08:32N 35°28' E 139°58'0 0.0
2015-May-26 07:32N 35°28' E 139°58'0 0.0
2015-May-26 06:32N 35°28' E 139°58'0 0.0
2015-May-26 05:29N 35°28' E 139°58'0 0.0
2015-May-26 04:29N 35°28' E 139°58'0 0.0
2015-May-26 03:32N 35°28' E 139°58'0 0.0
2015-May-26 02:32N 35°28' E 139°58'0 0.0
2015-May-26 01:32N 35°28' E 139°58'0 0.0
2015-May-26 00:29N 35°28' E 139°58'0 0.0
2015-May-25 23:32N 35°28' E 139°58'0 0.0
2015-May-25 22:32N 35°28' E 139°58'0 0.0
2015-May-25 21:32N 35°28' E 139°58'0 0.0
2015-May-25 20:32N 35°28' E 139°58'0 0.0
2015-May-25 19:29N 35°28' E 139°58'0 0.0
2015-May-25 18:29N 35°28' E 139°58'0 0.0
2015-May-25 17:32N 35°28' E 139°58'0 0.0
2015-May-25 16:32N 35°28' E 139°58'0 0.0
2015-May-25 15:32N 35°28' E 139°58'0 0.0
2015-May-25 14:32N 35°28' E 139°58'0 0.0
2015-May-25 13:32N 35°28' E 139°58'0 0.0
2015-May-25 12:32N 35°28' E 139°58'0 0.0
2015-May-25 11:32N 35°28' E 139°58'0 0.0
2015-May-25 10:32N 35°28' E 139°58'0 0.0
2015-May-25 09:32N 35°28' E 139°58'0 0.0
2015-May-25 08:32N 35°28' E 139°58'0 0.0
2015-May-25 07:29N 35°28' E 139°58'0 0.0
2015-May-25 06:32N 35°28' E 139°58'0 0.0
2015-May-25 05:32N 35°28' E 139°58'0 0.0
2015-May-25 04:32N 35°28' E 139°58'0 0.0
2015-May-25 03:29N 35°28' E 139°58'0 0.0
2015-May-25 02:29N 35°28' E 139°58'0 0.1
2015-May-25 01:33N 35°28' E 139°58'4 4.5
2015-May-25 00:33N 35°29' E 139°53'1111.4
2015-May-24 23:33N 35°20' E 139°44'1010.3
2015-May-24 22:34N 35°10' E 139°47'1110.7
2015-May-24 21:34N 35°00' E 139°41'1111.1
2015-May-24 20:33N 34°49' E 139°43'1311.5
2015-May-24 19:24N 34°40' E 139°54'1011.6
2015-May-24 18:33N 34°38' E 140°06'1211.0
2015-May-24 17:29N 34°35' E 140°20'  

Dump ship's entire track history